createdAt,value
2022-10-13T00:00:07.748Z,22.2
2022-10-13T00:15:02.199Z,22.2
2022-10-13T00:30:08.302Z,22.2
2022-10-13T00:45:02.462Z,22.2
2022-10-13T01:00:06.145Z,22.2
2022-10-13T01:15:03.869Z,22.1
2022-10-13T01:30:05.200Z,22.1
2022-10-13T01:45:02.058Z,22.1
2022-10-13T02:00:04.949Z,22.1
2022-10-13T02:15:02.368Z,22.1
2022-10-13T02:30:05.016Z,22.1
2022-10-13T02:45:02.639Z,22.1
2022-10-13T03:00:04.393Z,22.2
2022-10-13T03:15:02.908Z,22.2
2022-10-13T03:30:04.318Z,22.2
2022-10-13T03:45:02.465Z,22.2
2022-10-13T04:00:06.142Z,22.2
2022-10-13T04:15:03.558Z,22.2
2022-10-13T04:30:04.893Z,22.2
2022-10-13T04:45:03.280Z,22.2
2022-10-13T05:00:05.411Z,22.2
2022-10-13T05:15:02.177Z,22.2
2022-10-13T05:30:06.775Z,22.2
2022-10-13T05:45:04.032Z,22.3
2022-10-13T06:00:07.339Z,22.3
2022-10-13T06:15:02.085Z,22.5
2022-10-13T06:30:06.927Z,22.5
2022-10-13T06:45:03.431Z,22.7
2022-10-13T07:00:09.969Z,22.8
2022-10-13T07:15:06.434Z,22.9
2022-10-13T07:30:04.643Z,22.9
2022-10-13T07:45:02.919Z,23
2022-10-13T08:00:09.010Z,23.1
2022-10-13T08:15:05.947Z,23.2
2022-10-13T08:30:04.934Z,23.2
2022-10-13T09:00:07.033Z,23.4
2022-10-13T09:15:02.969Z,23.4
2022-10-13T09:30:06.493Z,23.5
2022-10-13T09:45:03.284Z,23.6
2022-10-13T10:00:05.222Z,23.6
2022-10-13T10:15:02.067Z,23.7
2022-10-13T10:30:05.195Z,23.7
2022-10-13T10:45:03.170Z,23.7
2022-10-13T11:00:10.953Z,23.8
2022-10-13T11:15:03.239Z,23.8
2022-10-13T11:30:06.165Z,23.8
2022-10-13T11:45:02.689Z,23.8
2022-10-13T12:00:06.716Z,23.9
2022-10-13T12:15:05.886Z,24.0
2022-10-13T12:30:06.205Z,24
2022-10-13T12:45:03.736Z,24
2022-10-13T13:00:05.775Z,24.1
2022-10-13T13:15:04.035Z,24.1
2022-10-13T13:30:07.105Z,24.2
2022-10-13T13:45:06.079Z,24.2
2022-10-13T14:00:08.676Z,24.2
2022-10-13T14:15:03.882Z,24.2
2022-10-13T14:30:08.682Z,24.3
2022-10-13T14:45:02.808Z,24.2
2022-10-13T15:00:10.566Z,24.2
2022-10-13T15:15:03.507Z,24.2
2022-10-13T15:30:06.957Z,24.0
2022-10-13T15:45:11.513Z,24
2022-10-13T16:00:08.438Z,23.8
2022-10-13T16:15:06.233Z,23.8
2022-10-13T16:30:08.253Z,23.6
2022-10-13T16:45:05.018Z,23.6
2022-10-13T17:00:10.718Z,23.5
2022-10-13T17:15:04.663Z,23.5
2022-10-13T17:30:07.105Z,23.4
2022-10-13T17:45:03.721Z,23.4
2022-10-13T18:00:05.200Z,23.3
2022-10-13T18:15:02.921Z,23.2
2022-10-13T18:30:09.806Z,23.2
2022-10-13T18:45:02.865Z,23.1
2022-10-13T19:00:08.229Z,23.1
2022-10-13T19:15:04.840Z,23.0
2022-10-13T19:30:04.736Z,23
2022-10-13T19:45:04.210Z,22.9
2022-10-13T20:00:08.154Z,22.9
2022-10-13T20:15:02.237Z,22.9
2022-10-13T20:30:07.630Z,22.8
2022-10-13T20:45:03.002Z,22.8
2022-10-13T21:00:07.029Z,22.8
2022-10-13T21:15:02.995Z,22.8
2022-10-13T21:30:08.545Z,22.7
2022-10-13T21:45:02.442Z,22.7
2022-10-13T22:00:11.326Z,22.7
2022-10-13T22:15:03.534Z,22.7
2022-10-13T22:30:06.787Z,22.7
2022-10-13T22:45:03.360Z,22.6
2022-10-13T23:00:04.454Z,22.6
2022-10-13T23:15:03.445Z,22.6
2022-10-13T23:30:05.307Z,22.6
2022-10-13T23:45:03.467Z,22.6
